createdAt,value
2022-10-05T00:01:48.567Z,14.59
2022-10-05T00:04:19.495Z,14.54
2022-10-05T00:06:57.212Z,14.50
2022-10-05T00:09:33.430Z,14.52
2022-10-05T00:12:15.332Z,14.53
2022-10-05T00:14:49.551Z,14.54
2022-10-05T00:17:24.160Z,14.53
2022-10-05T00:19:56.719Z,14.51
2022-10-05T00:22:30.362Z,14.47
2022-10-05T00:25:04.034Z,14.38
2022-10-05T00:27:38.046Z,14.31
2022-10-05T00:30:16.634Z,14.30
2022-10-05T00:32:48.925Z,14.32
2022-10-05T00:35:22.212Z,14.33
2022-10-05T00:37:56.787Z,14.34
2022-10-05T00:40:38.581Z,14.33
2022-10-05T00:43:25.737Z,14.21
2022-10-05T00:46:02.337Z,14.13
2022-10-05T00:48:40.030Z,14.13
2022-10-05T00:51:27.361Z,14.09
2022-10-05T00:54:12.561Z,14.05
2022-10-05T00:57:12.362Z,14.05
2022-10-05T00:59:53.611Z,14.02
2022-10-05T01:02:31.930Z,13.96
2022-10-05T01:05:13.593Z,13.92
2022-10-05T01:07:51.551Z,13.93
2022-10-05T01:10:28.857Z,13.93
2022-10-05T01:13:06.946Z,13.92
2022-10-05T01:15:43.904Z,13.89
2022-10-05T01:18:22.506Z,13.87
2022-10-05T01:21:01.295Z,13.85
2022-10-05T01:24:04.212Z,13.84
2022-10-05T01:26:49.618Z,13.71
2022-10-05T01:29:25.756Z,13.62
2022-10-05T01:32:04.240Z,13.54
2022-10-05T01:34:39.665Z,13.50
2022-10-05T01:37:16.719Z,13.49
2022-10-05T01:39:57.285Z,13.49
2022-10-05T01:42:36.915Z,13.48
2022-10-05T01:45:12.503Z,13.43
2022-10-05T01:47:48.180Z,13.41
2022-10-05T01:50:27.369Z,13.40
2022-10-05T01:53:04.865Z,13.39
2022-10-05T01:55:42.714Z,13.38
2022-10-05T01:58:21.291Z,13.37
2022-10-05T02:01:00.419Z,13.36
2022-10-05T02:03:37.345Z,13.37
2022-10-05T02:06:13.591Z,13.35
2022-10-05T02:08:48.105Z,13.32
2022-10-05T02:11:21.331Z,13.20
2022-10-05T02:13:57.144Z,13.01
2022-10-05T02:16:33.077Z,12.91
2022-10-05T02:19:06.804Z,12.88
2022-10-05T02:21:39.523Z,12.88
2022-10-05T02:24:13.357Z,12.90
2022-10-05T02:26:45.743Z,12.92
2022-10-05T02:29:16.748Z,12.92
2022-10-05T02:31:52.403Z,12.90
2022-10-05T02:34:29.801Z,12.92
2022-10-05T02:37:13.417Z,12.82
2022-10-05T02:39:53.672Z,12.74
2022-10-05T02:42:31.869Z,12.63
2022-10-05T02:45:11.728Z,12.56
2022-10-05T02:47:48.746Z,12.42
2022-10-05T02:50:27.377Z,12.33
2022-10-05T02:53:08.494Z,12.30
2022-10-05T02:55:45.812Z,12.30
2022-10-05T02:58:20.733Z,12.30
2022-10-05T03:00:57.101Z,12.26
2022-10-05T03:03:33.758Z,12.18
2022-10-05T03:06:10.264Z,12.12
2022-10-05T03:08:45.725Z,12.07
2022-10-05T03:11:26.911Z,12.01
2022-10-05T03:14:05.596Z,11.96
2022-10-05T03:16:47.873Z,11.92
2022-10-05T03:19:37.127Z,11.88
2022-10-05T03:22:15.692Z,11.88
2022-10-05T03:25:07.057Z,11.91
2022-10-05T03:27:45.785Z,11.98
2022-10-05T03:30:19.853Z,12.05
2022-10-05T03:32:59.968Z,12.10
2022-10-05T03:35:36.978Z,12.14
2022-10-05T03:38:13.368Z,12.15
2022-10-05T03:40:52.102Z,12.15
2022-10-05T03:43:41.456Z,12.09
2022-10-05T03:46:18.516Z,11.95
2022-10-05T03:48:56.868Z,11.80
2022-10-05T03:51:36.579Z,11.67
2022-10-05T03:54:13.401Z,11.61
2022-10-05T03:56:49.129Z,11.57
2022-10-05T03:59:25.232Z,11.56
2022-10-05T04:02:01.747Z,11.58
2022-10-05T04:04:38.928Z,11.55
2022-10-05T04:07:16.845Z,11.57
2022-10-05T04:09:50.824Z,11.61
2022-10-05T04:12:26.836Z,11.66
2022-10-05T04:15:02.076Z,11.67
2022-10-05T04:17:36.341Z,11.66
2022-10-05T04:20:16.356Z,11.60
2022-10-05T04:22:54.784Z,11.59
2022-10-05T04:25:30.060Z,11.61
2022-10-05T04:28:06.697Z,11.62
2022-10-05T04:30:42.057Z,11.59
2022-10-05T04:33:16.171Z,11.59
2022-10-05T04:36:11.011Z,11.58
2022-10-05T04:38:50.735Z,11.61
2022-10-05T04:41:35.123Z,11.63
2022-10-05T04:44:27.945Z,11.61
2022-10-05T04:47:36.046Z,11.58
2022-10-05T04:50:22.084Z,11.64
2022-10-05T04:53:05.597Z,11.69
2022-10-05T04:55:41.652Z,11.73
2022-10-05T04:58:22.131Z,11.80
2022-10-05T05:01:07.047Z,11.87
2022-10-05T05:03:53.051Z,11.95
2022-10-05T05:06:36.033Z,12.01
2022-10-05T05:10:24.487Z,12.13
2022-10-05T05:13:02.656Z,12.20
2022-10-05T05:15:43.493Z,12.24
2022-10-05T05:18:35.135Z,12.26
2022-10-05T05:21:21.455Z,12.29
2022-10-05T05:24:07.532Z,12.31
2022-10-05T05:26:56.084Z,12.36
2022-10-05T05:29:43.194Z,12.39
2022-10-05T05:34:26.553Z,12.50
2022-10-05T05:37:07.849Z,12.53
2022-10-05T05:39:47.189Z,12.57
2022-10-05T05:42:29.702Z,12.63
2022-10-05T05:45:07.842Z,12.68
2022-10-05T05:47:43.874Z,12.73
2022-10-05T05:50:32.718Z,12.77
2022-10-05T05:53:11.225Z,12.81
2022-10-05T05:55:46.368Z,12.86
2022-10-05T05:58:23.553Z,12.90
2022-10-05T06:01:01.494Z,12.97
2022-10-05T06:03:39.335Z,13.06
2022-10-05T06:06:13.208Z,13.17
2022-10-05T06:08:52.953Z,13.33
2022-10-05T06:11:28.121Z,13.55
2022-10-05T06:14:03.234Z,13.76
2022-10-05T06:16:38.744Z,13.94
2022-10-05T06:19:15.016Z,14.12
2022-10-05T06:21:49.661Z,14.31
2022-10-05T06:24:26.349Z,14.50
2022-10-05T06:27:22.880Z,14.71
2022-10-05T06:30:06.398Z,14.93
2022-10-05T06:32:52.234Z,15.11
2022-10-05T06:35:33.555Z,15.27
2022-10-05T06:38:16.925Z,15.39
2022-10-05T06:41:03.973Z,15.48
2022-10-05T06:43:47.737Z,15.54
2022-10-05T06:46:25.045Z,15.55
2022-10-05T06:49:13.589Z,15.55
2022-10-05T06:51:51.989Z,15.51
2022-10-05T06:54:43.980Z,15.49
2022-10-05T06:57:30.224Z,15.48
2022-10-05T07:00:06.090Z,15.49
2022-10-05T07:02:45.279Z,15.52
2022-10-05T07:05:47.497Z,15.56
2022-10-05T07:08:25.146Z,15.58
2022-10-05T07:11:08.400Z,15.61
2022-10-05T07:14:00.488Z,15.66
2022-10-05T07:16:42.616Z,15.67
2022-10-05T07:19:23.705Z,15.69
2022-10-05T07:22:10.730Z,15.74
2022-10-05T07:24:46.644Z,15.77
2022-10-05T07:27:21.320Z,15.79
2022-10-05T07:29:59.129Z,15.82
2022-10-05T07:32:36.736Z,15.88
2022-10-05T07:35:33.540Z,15.98
2022-10-05T07:38:08.581Z,16.08
2022-10-05T07:40:43.016Z,16.20
2022-10-05T07:43:23.125Z,16.25
2022-10-05T07:45:59.361Z,16.33
2022-10-05T07:48:39.555Z,16.40
2022-10-05T07:51:17.248Z,16.43
2022-10-05T07:54:08.177Z,16.46
2022-10-05T07:56:43.497Z,16.51
2022-10-05T07:59:21.216Z,16.54
2022-10-05T08:02:00.248Z,16.54
2022-10-05T08:04:41.782Z,16.57
2022-10-05T08:07:16.667Z,16.63
2022-10-05T08:09:54.755Z,16.63
2022-10-05T08:12:34.542Z,16.67
2022-10-05T08:15:11.292Z,16.73
2022-10-05T08:17:49.952Z,16.77
2022-10-05T08:20:40.152Z,16.83
2022-10-05T08:23:21.282Z,16.86
2022-10-05T08:26:01.515Z,16.89
2022-10-05T08:28:38.402Z,16.90
2022-10-05T08:31:18.404Z,16.92
2022-10-05T08:33:58.734Z,16.96
2022-10-05T08:36:44.922Z,17.02
2022-10-05T08:39:19.580Z,17.08
2022-10-05T08:42:06.979Z,17.12
2022-10-05T08:45:24.587Z,17.18
2022-10-05T08:48:30.119Z,17.23
2022-10-05T08:51:30.465Z,17.27
2022-10-05T08:54:21.920Z,17.34
2022-10-05T08:57:05.085Z,17.41
2022-10-05T08:59:57.546Z,17.47
2022-10-05T09:02:38.763Z,17.55
2022-10-05T09:05:28.900Z,17.61
2022-10-05T09:08:27.192Z,17.69
2022-10-05T09:11:14.751Z,17.83
2022-10-05T09:14:11.650Z,17.96
2022-10-05T09:17:00.003Z,18.17
2022-10-05T09:19:55.413Z,18.41
2022-10-05T09:22:51.441Z,18.72
2022-10-05T09:25:27.734Z,18.78
2022-10-05T09:28:05.151Z,19.15
2022-10-05T09:30:49.865Z,19.59
2022-10-05T09:33:53.250Z,20.01
2022-10-05T09:36:55.609Z,20.43
2022-10-05T09:39:48.328Z,20.96
2022-10-05T09:42:58.800Z,21.55
2022-10-05T09:45:53.426Z,22.04
2022-10-05T09:48:55.401Z,22.47
2022-10-05T09:52:06.359Z,22.95
2022-10-05T09:55:09.074Z,23.38
2022-10-05T09:58:20.637Z,23.64
2022-10-05T10:01:09.827Z,23.52
2022-10-05T10:04:07.280Z,23.41
2022-10-05T10:07:13.446Z,23.77
2022-10-05T10:09:57.867Z,24.13
2022-10-05T10:12:38.538Z,24.48
2022-10-05T10:15:35.921Z,24.76
2022-10-05T10:18:32.868Z,24.68
2022-10-05T10:21:15.604Z,24.69
2022-10-05T10:24:00.482Z,24.85
2022-10-05T10:26:58.422Z,24.78
2022-10-05T10:29:53.783Z,24.69
2022-10-05T10:33:11.916Z,25.12
2022-10-05T10:35:49.511Z,25.64
2022-10-05T10:38:36.679Z,25.75
2022-10-05T10:41:29.334Z,25.81
2022-10-05T10:44:16.195Z,25.85
2022-10-05T10:46:57.681Z,25.99
2022-10-05T10:49:41.331Z,26.38
2022-10-05T10:52:31.462Z,26.82
2022-10-05T10:55:19.735Z,27.08
2022-10-05T10:58:16.507Z,27.03
2022-10-05T11:00:54.983Z,26.95
2022-10-05T11:03:57.337Z,26.93
2022-10-05T11:06:54.285Z,26.92
2022-10-05T11:09:52.177Z,26.91
2022-10-05T11:12:51.181Z,27.19
2022-10-05T11:15:51.887Z,27.44
2022-10-05T11:18:25.881Z,27.62
2022-10-05T11:21:22.056Z,27.30
2022-10-05T11:24:32.743Z,27.29
2022-10-05T11:27:31.341Z,27.35
2022-10-05T11:30:39.298Z,27.14
2022-10-05T11:33:43.083Z,26.93
2022-10-05T11:36:49.325Z,26.67
2022-10-05T11:39:37.276Z,26.33
2022-10-05T11:42:54.905Z,26.07
2022-10-05T11:45:28.937Z,25.75
2022-10-05T11:48:17.238Z,25.66
2022-10-05T11:50:59.952Z,25.63
2022-10-05T11:53:34.847Z,25.61
2022-10-05T11:56:14.817Z,25.69
2022-10-05T11:58:51.391Z,25.56
2022-10-05T12:01:28.845Z,25.28
2022-10-05T12:04:09.530Z,25.12
2022-10-05T12:06:52.585Z,25.20
2022-10-05T12:09:38.893Z,25.50
2022-10-05T12:12:18.008Z,25.67
2022-10-05T12:14:57.775Z,25.89
2022-10-05T12:17:37.074Z,25.98
2022-10-05T12:20:15.897Z,25.67
2022-10-05T12:22:52.216Z,25.44
2022-10-05T12:25:28.794Z,25.28
2022-10-05T12:28:05.126Z,25.18
2022-10-05T12:31:07.743Z,25.06
2022-10-05T12:33:44.205Z,24.72
2022-10-05T12:36:19.310Z,24.49
2022-10-05T12:38:56.664Z,24.32
2022-10-05T12:41:33.381Z,24.17
2022-10-05T12:44:13.028Z,24.08
2022-10-05T12:46:52.712Z,24.06
2022-10-05T12:49:33.387Z,24.31
2022-10-05T12:52:08.308Z,24.68
2022-10-05T12:54:47.228Z,25.06
2022-10-05T12:57:24.319Z,25.19
2022-10-05T13:00:00.389Z,25.12
2022-10-05T13:02:42.461Z,25.00
2022-10-05T13:05:27.001Z,24.63
2022-10-05T13:08:21.748Z,24.33
2022-10-05T13:11:01.709Z,24.03
2022-10-05T13:13:44.348Z,24.09
2022-10-05T13:16:27.435Z,24.41
2022-10-05T13:19:10.025Z,24.66
2022-10-05T13:21:55.215Z,24.93
2022-10-05T13:24:30.871Z,25.20
2022-10-05T13:27:08.639Z,25.48
2022-10-05T13:29:43.746Z,25.57
2022-10-05T13:32:20.804Z,25.58
2022-10-05T13:34:58.992Z,25.58
2022-10-05T13:37:40.314Z,25.63
2022-10-05T13:40:21.823Z,25.58
2022-10-05T13:42:58.051Z,25.67
2022-10-05T13:45:33.701Z,25.82
2022-10-05T13:48:16.901Z,25.86
2022-10-05T13:51:02.147Z,25.68
2022-10-05T13:53:41.256Z,25.47
2022-10-05T13:56:21.010Z,25.30
2022-10-05T13:58:56.195Z,25.27
2022-10-05T14:01:35.850Z,25.12
2022-10-05T14:04:11.503Z,24.96
2022-10-05T14:06:43.655Z,24.73
2022-10-05T14:09:30.737Z,24.55
2022-10-05T14:12:22.709Z,24.31
2022-10-05T14:14:56.489Z,24.16
2022-10-05T14:17:42.180Z,23.97
2022-10-05T14:20:25.233Z,23.83
2022-10-05T14:23:01.936Z,23.80
2022-10-05T14:25:34.853Z,23.76
2022-10-05T14:28:25.832Z,23.60
2022-10-05T14:31:02.959Z,23.20
2022-10-05T14:33:36.416Z,22.99
2022-10-05T14:36:12.456Z,22.97
2022-10-05T14:39:00.775Z,22.93
2022-10-05T14:41:37.676Z,22.87
2022-10-05T14:44:30.427Z,22.85
2022-10-05T14:47:02.912Z,22.76
2022-10-05T14:49:37.546Z,22.57
2022-10-05T14:52:32.979Z,22.35
2022-10-05T14:55:17.812Z,22.30
2022-10-05T14:58:08.783Z,22.30
2022-10-05T15:00:48.929Z,22.33
2022-10-05T15:03:33.332Z,22.30
2022-10-05T15:06:07.085Z,22.21
2022-10-05T15:08:54.196Z,22.13
2022-10-05T15:11:37.592Z,22.01
2022-10-05T15:14:16.471Z,21.95
2022-10-05T15:16:49.380Z,21.82
2022-10-05T15:19:26.033Z,21.72
2022-10-05T15:22:11.581Z,21.69
2022-10-05T15:24:47.329Z,21.66
2022-10-05T15:27:26.372Z,21.61
2022-10-05T15:30:07.835Z,21.54
2022-10-05T15:32:47.657Z,21.50
2022-10-05T15:36:02.484Z,21.43
2022-10-05T15:38:39.644Z,21.32
2022-10-05T15:41:16.183Z,21.23
2022-10-05T15:44:06.622Z,21.14
2022-10-05T15:46:46.207Z,21.06
2022-10-05T15:49:25.913Z,20.99
2022-10-05T15:52:04.446Z,20.92
2022-10-05T15:57:45.548Z,20.87
2022-10-05T16:00:20.050Z,20.84
2022-10-05T16:02:58.325Z,20.80
2022-10-05T16:05:58.316Z,20.76
2022-10-05T16:08:54.360Z,20.70
2022-10-05T16:11:37.041Z,20.60
2022-10-05T16:14:09.989Z,20.48
2022-10-05T16:16:50.037Z,20.38
2022-10-05T16:19:26.502Z,20.35
2022-10-05T16:22:05.151Z,20.33
2022-10-05T16:25:09.209Z,20.31
2022-10-05T16:27:52.715Z,20.23
2022-10-05T16:30:26.546Z,20.17
2022-10-05T16:33:04.716Z,20.12
2022-10-05T16:35:44.452Z,20.08
2022-10-05T16:38:26.011Z,20.05
2022-10-05T16:41:03.832Z,20.04
2022-10-05T16:43:46.049Z,19.98
2022-10-05T16:46:27.926Z,19.92
2022-10-05T16:49:07.466Z,19.88
2022-10-05T16:51:47.008Z,19.84
2022-10-05T16:54:21.670Z,19.81
2022-10-05T16:56:59.826Z,19.76
2022-10-05T17:00:08.910Z,19.73
2022-10-05T17:03:02.151Z,19.68
2022-10-05T17:05:55.783Z,19.64
2022-10-05T17:08:40.911Z,19.58
2022-10-05T17:11:23.597Z,19.48
2022-10-05T17:13:57.371Z,19.41
2022-10-05T17:16:36.156Z,19.33
2022-10-05T17:19:29.164Z,19.33
2022-10-05T17:22:03.468Z,19.28
2022-10-05T17:24:50.963Z,19.19
2022-10-05T17:27:36.075Z,19.09
2022-10-05T17:30:47.489Z,19.03
2022-10-05T17:33:25.301Z,18.95
2022-10-05T17:39:14.545Z,18.88
2022-10-05T17:41:46.923Z,18.84
2022-10-05T17:44:29.364Z,18.81
2022-10-05T17:47:04.200Z,18.80
2022-10-05T17:50:16.802Z,18.76
2022-10-05T17:53:39.638Z,18.65
2022-10-05T17:56:11.839Z,18.53
2022-10-05T17:59:03.966Z,18.48
2022-10-05T18:01:38.182Z,18.43
2022-10-05T18:04:42.594Z,18.38
2022-10-05T18:07:27.808Z,18.32
2022-10-05T18:10:29.135Z,18.24
2022-10-05T18:13:33.007Z,18.18
2022-10-05T18:16:05.280Z,18.13
2022-10-05T18:18:57.398Z,18.13
2022-10-05T18:21:41.615Z,18.08
2022-10-05T18:24:39.081Z,18.04
2022-10-05T18:27:30.556Z,18.02
2022-10-05T18:30:08.922Z,18.00
2022-10-05T18:33:14.124Z,17.97
2022-10-05T18:35:53.975Z,17.92
2022-10-05T18:38:39.060Z,17.87
2022-10-05T18:41:20.208Z,17.85
2022-10-05T18:44:00.097Z,17.81
2022-10-05T18:46:39.218Z,17.78
2022-10-05T18:49:26.213Z,17.76
2022-10-05T18:52:03.929Z,17.75
2022-10-05T18:54:48.306Z,17.75
2022-10-05T18:57:40.560Z,17.72
2022-10-05T19:00:18.811Z,17.67
2022-10-05T19:02:53.795Z,17.66
2022-10-05T19:05:48.653Z,17.65
2022-10-05T19:08:27.763Z,17.63
2022-10-05T19:11:06.297Z,17.61
2022-10-05T19:13:44.918Z,17.59
2022-10-05T19:16:26.257Z,17.56
2022-10-05T19:19:12.920Z,17.50
2022-10-05T19:21:50.970Z,17.44
2022-10-05T19:24:53.110Z,17.40
2022-10-05T19:27:33.995Z,17.37
2022-10-05T19:30:19.373Z,17.34
2022-10-05T19:33:05.714Z,17.29
2022-10-05T19:35:45.109Z,17.25
2022-10-05T19:38:25.961Z,17.21
2022-10-05T19:41:05.576Z,17.21
2022-10-05T19:43:53.745Z,17.20
2022-10-05T19:46:34.909Z,17.18
2022-10-05T19:49:09.174Z,17.15
2022-10-05T19:51:51.729Z,17.13
2022-10-05T19:54:29.958Z,17.12
2022-10-05T19:57:03.033Z,17.05
2022-10-05T19:59:35.665Z,17.02
2022-10-05T20:02:07.875Z,16.99
2022-10-05T20:04:41.262Z,16.96
2022-10-05T20:07:17.439Z,16.94
2022-10-05T20:09:55.210Z,16.95
2022-10-05T20:12:50.948Z,16.91
2022-10-05T20:15:42.841Z,16.88
2022-10-05T20:18:57.021Z,16.87
2022-10-05T20:22:00.040Z,16.87
2022-10-05T20:24:33.426Z,16.84
2022-10-05T20:27:06.292Z,16.83
2022-10-05T20:29:40.558Z,16.81
2022-10-05T20:32:14.159Z,16.83
2022-10-05T20:34:49.367Z,16.83
2022-10-05T20:37:21.861Z,16.80
2022-10-05T20:39:54.139Z,16.80
2022-10-05T20:42:26.831Z,16.80
2022-10-05T20:44:59.077Z,16.78
2022-10-05T20:47:31.218Z,16.77
2022-10-05T20:50:05.185Z,16.75
2022-10-05T20:52:38.438Z,16.73
2022-10-05T20:55:12.664Z,16.73
2022-10-05T20:57:46.307Z,16.69
2022-10-05T21:00:18.787Z,16.66
2022-10-05T21:02:50.935Z,16.64
2022-10-05T21:05:23.090Z,16.59
2022-10-05T21:07:55.324Z,16.57
2022-10-05T21:10:27.413Z,16.54
2022-10-05T21:13:03.065Z,16.51
2022-10-05T21:15:35.148Z,16.45
2022-10-05T21:18:07.420Z,16.39
2022-10-05T21:20:39.509Z,16.35
2022-10-05T21:23:12.335Z,16.30
2022-10-05T21:25:44.472Z,16.25
2022-10-05T21:28:16.944Z,16.22
2022-10-05T21:30:49.160Z,16.19
2022-10-05T21:33:21.622Z,16.15
2022-10-05T21:35:53.735Z,16.13
2022-10-05T21:38:26.336Z,16.12
2022-10-05T21:40:58.848Z,16.12
2022-10-05T21:43:31.184Z,16.11
2022-10-05T21:46:02.278Z,16.08
2022-10-05T21:48:36.397Z,16.04
2022-10-05T21:51:10.843Z,16.06
2022-10-05T21:53:45.795Z,16.05
2022-10-05T21:56:20.188Z,16.05
2022-10-05T21:58:53.196Z,16.05
2022-10-05T22:01:25.339Z,16.01
2022-10-05T22:03:58.032Z,15.95
2022-10-05T22:06:28.472Z,15.95
2022-10-05T22:09:00.821Z,15.93
2022-10-05T22:11:32.960Z,15.95
2022-10-05T22:14:05.221Z,15.97
2022-10-05T22:16:40.295Z,15.94
2022-10-05T22:19:17.179Z,15.90
2022-10-05T22:21:49.304Z,15.89
2022-10-05T22:24:21.399Z,15.86
2022-10-05T22:26:53.733Z,15.84
2022-10-05T22:29:25.831Z,15.80
2022-10-05T22:31:59.378Z,15.74
2022-10-05T22:34:31.672Z,15.69
2022-10-05T22:37:04.254Z,15.69
2022-10-05T22:39:34.672Z,15.70
2022-10-05T22:42:07.047Z,15.66
2022-10-05T22:44:40.371Z,15.64
2022-10-05T22:47:12.463Z,15.61
2022-10-05T22:49:44.657Z,15.57
2022-10-05T22:52:16.758Z,15.51
2022-10-05T22:54:48.884Z,15.44
2022-10-05T22:57:21.270Z,15.38
2022-10-05T22:59:51.903Z,15.31
2022-10-05T23:02:23.984Z,15.22
2022-10-05T23:04:56.159Z,15.21
2022-10-05T23:07:28.306Z,15.16
2022-10-05T23:10:00.456Z,15.07
2022-10-05T23:12:32.681Z,15.02
2022-10-05T23:15:05.495Z,14.99
2022-10-05T23:17:39.452Z,15.01
2022-10-05T23:20:12.585Z,15.00
2022-10-05T23:22:44.678Z,14.96
2022-10-05T23:25:17.963Z,14.96
2022-10-05T23:27:50.164Z,14.95
2022-10-05T23:30:22.434Z,14.96
2022-10-05T23:32:54.766Z,14.96
2022-10-05T23:35:26.842Z,14.94
2022-10-05T23:37:59.002Z,14.94
2022-10-05T23:40:31.098Z,14.93
2022-10-05T23:43:03.170Z,14.92
2022-10-05T23:45:35.338Z,14.86
2022-10-05T23:48:07.424Z,14.84
2022-10-05T23:50:40.276Z,14.82
2022-10-05T23:53:12.390Z,14.79
2022-10-05T23:55:44.780Z,14.71
2022-10-05T23:58:17.154Z,14.66
